Česky Dansk Deutsch English Español Suomi Français Magyar Italiano Nederlands norsk Polski Português svenska Türkçe

 

Het Weer

Landsberg (Duitsland)

06:20, 22 augustus 2016 (GMT)

NWNNE
WE
SWSSE
Home            
Landsberg Lechfeld Altenstadt Oberpfaffenhofen Fuerstenfeldbruck Augsburg Memmingen Munchen Laupheim Neuburg / Donau Erding Ingolstadt Innsbruck-Flughafen Schwaz Heliport Friedrichshafen Hohenems-Dornbirn Saint Gallen-Altenrhein Roth Konstanz Ansbach / Katterbach Resia Pass Messstetten Stuttgart-Echterdingen

Om een weerknop op uw website of weblog te plaatsen, copieer onderstaande code en plak die in uw pagina. In het eerste vakje staat HTML-code, in het tweede vakje UBB-code.


Add to Google

Details

Wind speed:2 bf, 4 kn, 2.1 m/s, 4.6 miles/h, 7.4 km/h
Wind direction:WSW, 240°
Visibility:Greater than 10000 m, 10 km, 32800 ft, 6.2 miles
Clouds:Ein wenig bewölkt at 10000 ft, 3048 m
Temperature:13°C, 55°F
Dew-point:9°C, 48°F
Atmospheric pressure:1029 hPa, 771.8 mmHg, 30.39 inHg, 1.016 atm
Relative humidity:76.7 %
METAR:ETSA 220620Z 24004KT 9999 FEW100 13/09 Q1029 BLU+BLU+

Snelkoppelingen

Actuele weersinformatie van de hele wereld. Voeg locaties toe met het plus (+) symbool. Deze snelkoppelingen kunnen worden toegevoegd aan Google.

Lid van de Technetium groep

website free tracking
StatCounter NetStat W3C Validator

29-06-2022 12:50:38
astro.technetium.be money.technetium.be phote.technetium.be tafeltennistafel.technetium.be www.ligfiets.net